sensor_id;sensor_type;location;lat;lon;timestamp;pressure;altitude;pressure_sealevel;temperature;humidity
59289;BME280;45056;47.602;9.886;2023-04-20T00:00:07;92652.97;;;4.59;68.78
59289;BME280;45056;47.602;9.886;2023-04-20T00:02:36;92643.38;;;4.58;68.74
59289;BME280;45056;47.602;9.886;2023-04-20T00:05:06;92639.16;;;4.57;68.59
59289;BME280;45056;47.602;9.886;2023-04-20T00:07:35;92633.34;;;4.59;68.60
59289;BME280;45056;47.602;9.886;2023-04-20T00:10:05;92630.59;;;4.62;68.74
59289;BME280;45056;47.602;9.886;2023-04-20T00:12:34;92627.44;;;4.68;68.63
59289;BME280;45056;47.602;9.886;2023-04-20T00:15:04;92627.38;;;4.71;68.43
59289;BME280;45056;47.602;9.886;2023-04-20T00:17:35;92618.13;;;4.72;68.29
59289;BME280;45056;47.602;9.886;2023-04-20T00:20:04;92616.59;;;4.71;68.48
59289;BME280;45056;47.602;9.886;2023-04-20T00:22:35;92614.31;;;4.70;68.47
59289;BME280;45056;47.602;9.886;2023-04-20T00:25:03;92602.34;;;4.71;68.59
59289;BME280;45056;47.602;9.886;2023-04-20T00:27:32;92603.53;;;4.70;68.30
59289;BME280;45056;47.602;9.886;2023-04-20T00:30:00;92598.56;;;4.68;68.29
59289;BME280;45056;47.602;9.886;2023-04-20T00:32:29;92597.78;;;4.68;68.24
59289;BME280;45056;47.602;9.886;2023-04-20T00:34:58;92594.25;;;4.71;68.41
59289;BME280;45056;47.602;9.886;2023-04-20T00:37:26;92594.59;;;4.73;68.43
59289;BME280;45056;47.602;9.886;2023-04-20T00:39:54;92586.94;;;4.71;68.41
59289;BME280;45056;47.602;9.886;2023-04-20T00:42:23;92583.47;;;4.71;68.34
59289;BME280;45056;47.602;9.886;2023-04-20T00:44:51;92575.81;;;4.69;68.44
59289;BME280;45056;47.602;9.886;2023-04-20T00:47:19;92575.81;;;4.69;68.72
59289;BME280;45056;47.602;9.886;2023-04-20T00:52:18;92563.91;;;4.67;68.83
59289;BME280;45056;47.602;9.886;2023-04-20T00:54:46;92551.69;;;4.62;68.70
59289;BME280;45056;47.602;9.886;2023-04-20T00:57:18;92555.97;;;4.59;68.54
59289;BME280;45056;47.602;9.886;2023-04-20T00:59:49;92556.72;;;4.60;68.51
59289;BME280;45056;47.602;9.886;2023-04-20T01:02:18;92565.91;;;4.62;68.66
59289;BME280;45056;47.602;9.886;2023-04-20T01:04:46;92565.50;;;4.64;68.37
59289;BME280;45056;47.602;9.886;2023-04-20T01:07:15;92555.06;;;4.66;68.40
59289;BME280;45056;47.602;9.886;2023-04-20T01:09:45;92540.41;;;4.67;68.23
59289;BME280;45056;47.602;9.886;2023-04-20T01:12:13;92537.31;;;4.69;68.56
59289;BME280;45056;47.602;9.886;2023-04-20T01:14:41;92540.34;;;4.71;68.52
59289;BME280;45056;47.602;9.886;2023-04-20T01:17:09;92535.75;;;4.71;68.81
59289;BME280;45056;47.602;9.886;2023-04-20T01:19:36;92527.22;;;4.73;68.61
59289;BME280;45056;47.602;9.886;2023-04-20T01:22:04;92528.00;;;4.73;68.47
59289;BME280;45056;47.602;9.886;2023-04-20T01:24:34;92524.97;;;4.71;68.54
59289;BME280;45056;47.602;9.886;2023-04-20T01:27:02;92521.09;;;4.72;68.60
59289;BME280;45056;47.602;9.886;2023-04-20T01:29:30;92519.13;;;4.73;68.49
59289;BME280;45056;47.602;9.886;2023-04-20T01:31:59;92519.13;;;4.73;68.36
59289;BME280;45056;47.602;9.886;2023-04-20T01:34:27;92516.44;;;4.73;68.35
59289;BME280;45056;47.602;9.886;2023-04-20T01:36:55;92514.19;;;4.71;68.41
59289;BME280;45056;47.602;9.886;2023-04-20T01:39:23;92508.03;;;4.71;68.64
59289;BME280;45056;47.602;9.886;2023-04-20T01:41:53;92513.06;;;4.69;68.34
59289;BME280;45056;47.602;9.886;2023-04-20T01:44:22;92512.31;;;4.68;68.23
59289;BME280;45056;47.602;9.886;2023-04-20T01:46:49;92506.56;;;4.66;68.09
59289;BME280;45056;47.602;9.886;2023-04-20T01:49:17;92508.91;;;4.64;67.94
59289;BME280;45056;47.602;9.886;2023-04-20T01:51:45;92509.72;;;4.61;67.58
59289;BME280;45056;47.602;9.886;2023-04-20T01:54:13;92501.31;;;4.59;67.74
59289;BME280;45056;47.602;9.886;2023-04-20T01:56:41;92486.31;;;4.58;67.63
59289;BME280;45056;47.602;9.886;2023-04-20T01:59:10;92491.34;;;4.56;67.97
59289;BME280;45056;47.602;9.886;2023-04-20T02:01:38;92491.00;;;4.54;68.01
59289;BME280;45056;47.602;9.886;2023-04-20T02:04:07;92487.16;;;4.55;68.14
59289;BME280;45056;47.602;9.886;2023-04-20T02:06:35;92489.78;;;4.58;68.04
59289;BME280;45056;47.602;9.886;2023-04-20T02:09:03;92490.13;;;4.60;67.93
59289;BME280;45056;47.602;9.886;2023-04-20T02:11:31;92480.03;;;4.65;67.85
59289;BME280;45056;47.602;9.886;2023-04-20T02:13:59;92475.81;;;4.64;67.76
59289;BME280;45056;47.602;9.886;2023-04-20T02:16:28;92468.97;;;4.59;67.66
59289;BME280;45056;47.602;9.886;2023-04-20T02:18:57;92474.44;;;4.55;67.95
59289;BME280;45056;47.602;9.886;2023-04-20T02:21:25;92466.75;;;4.54;67.83
59289;BME280;45056;47.602;9.886;2023-04-20T02:23:53;92467.09;;;4.56;68.03
59289;BME280;45056;47.602;9.886;2023-04-20T02:26:21;92464.41;;;4.56;68.00
59289;BME280;45056;47.602;9.886;2023-04-20T02:28:49;92464.34;;;4.59;68.35
59289;BME280;45056;47.602;9.886;2023-04-20T02:31:17;92449.38;;;4.58;68.43
59289;BME280;45056;47.602;9.886;2023-04-20T02:33:46;92455.16;;;4.57;68.60
59289;BME280;45056;47.602;9.886;2023-04-20T02:36:15;92457.50;;;4.55;68.79
59289;BME280;45056;47.602;9.886;2023-04-20T02:38:43;92459.03;;;4.56;68.85
59289;BME280;45056;47.602;9.886;2023-04-20T02:41:11;92461.31;;;4.57;68.83
59289;BME280;45056;47.602;9.886;2023-04-20T02:43:39;92449.72;;;4.60;68.50
59289;BME280;45056;47.602;9.886;2023-04-20T02:46:07;92454.66;;;4.62;68.47
59289;BME280;45056;47.602;9.886;2023-04-20T02:48:35;92451.56;;;4.64;68.16
59289;BME280;45056;47.602;9.886;2023-04-20T02:51:04;92438.44;;;4.66;68.19
59289;BME280;45056;47.602;9.886;2023-04-20T02:53:32;92438.00;;;4.67;68.04
59289;BME280;45056;47.602;9.886;2023-04-20T02:56:01;92444.09;;;4.71;67.86
59289;BME280;45056;47.602;9.886;2023-04-20T02:58:29;92430.19;;;4.73;67.88
59289;BME280;45056;47.602;9.886;2023-04-20T03:00:58;92431.31;;;4.75;67.83
59289;BME280;45056;47.602;9.886;2023-04-20T03:03:27;92430.13;;;4.76;67.68
59289;BME280;45056;47.602;9.886;2023-04-20T03:05:55;92421.72;;;4.74;67.44
59289;BME280;45056;47.602;9.886;2023-04-20T03:08:25;92431.31;;;4.75;67.59
59289;BME280;45056;47.602;9.886;2023-04-20T03:10:53;92421.28;;;4.76;67.63
59289;BME280;45056;47.602;9.886;2023-04-20T03:13:21;92417.84;;;4.75;67.65
59289;BME280;45056;47.602;9.886;2023-04-20T03:15:49;92407.06;;;4.75;67.74
59289;BME280;45056;47.602;9.886;2023-04-20T03:18:17;92414.03;;;4.73;67.72
59289;BME280;45056;47.602;9.886;2023-04-20T03:20:44;92424.06;;;4.72;67.72
59289;BME280;45056;47.602;9.886;2023-04-20T03:23:13;92423.22;;;4.75;67.73
59289;BME280;45056;47.602;9.886;2023-04-20T03:25:42;92418.94;;;4.78;67.60
59289;BME280;45056;47.602;9.886;2023-04-20T03:28:11;92406.97;;;4.79;67.46
59289;BME280;45056;47.602;9.886;2023-04-20T03:30:39;92403.59;;;4.75;67.41
59289;BME280;45056;47.602;9.886;2023-04-20T03:33:07;92394.09;;;4.70;67.59
59289;BME280;45056;47.602;9.886;2023-04-20T03:35:35;92396.84;;;4.67;67.73
59289;BME280;45056;47.602;9.886;2023-04-20T03:38:05;92391.84;;;4.65;67.97
59289;BME280;45056;47.602;9.886;2023-04-20T03:40:33;92402.28;;;4.63;67.93
59289;BME280;45056;47.602;9.886;2023-04-20T03:43:03;92401.59;;;4.59;68.05
59289;BME280;45056;47.602;9.886;2023-04-20T03:45:31;92396.16;;;4.62;68.39
59289;BME280;45056;47.602;9.886;2023-04-20T03:47:59;92399.53;;;4.67;68.29
59289;BME280;45056;47.602;9.886;2023-04-20T03:50:27;92392.56;;;4.69;68.36
59289;BME280;45056;47.602;9.886;2023-04-20T03:52:55;92384.81;;;4.71;68.17
59289;BME280;45056;47.602;9.886;2023-04-20T03:55:23;92391.22;;;4.78;68.03
59289;BME280;45056;47.602;9.886;2023-04-20T03:57:53;92388.09;;;4.79;68.43
59289;BME280;45056;47.602;9.886;2023-04-20T04:00:22;92374.97;;;4.81;68.39
59289;BME280;45056;47.602;9.886;2023-04-20T04:02:50;92367.59;;;4.85;68.20
59289;BME280;45056;47.602;9.886;2023-04-20T04:05:18;92369.50;;;4.85;68.08
59289;BME280;45056;47.602;9.886;2023-04-20T04:07:46;92368.06;;;4.80;67.92
59289;BME280;45056;47.602;9.886;2023-04-20T04:10:14;92367.38;;;4.76;68.13
59289;BME280;45056;47.602;9.886;2023-04-20T04:12:44;92364.00;;;4.72;68.11
59289;BME280;45056;47.602;9.886;2023-04-20T04:15:12;92362.91;;;4.69;68.33
59289;BME280;45056;47.602;9.886;2023-04-20T04:17:42;92371.00;;;4.69;68.48
59289;BME280;45056;47.602;9.886;2023-04-20T04:20:11;92377.06;;;4.73;68.34
59289;BME280;45056;47.602;9.886;2023-04-20T04:22:40;92380.78;;;4.80;68.47
59289;BME280;45056;47.602;9.886;2023-04-20T04:25:09;92365.63;;;4.86;68.41
59289;BME280;45056;47.602;9.886;2023-04-20T04:27:37;92361.25;;;4.92;68.11
59289;BME280;45056;47.602;9.886;2023-04-20T04:30:06;92362.03;;;4.93;67.96
59289;BME280;45056;47.602;9.886;2023-04-20T04:32:36;92360.91;;;4.90;67.92
59289;BME280;45056;47.602;9.886;2023-04-20T04:35:06;92365.97;;;4.88;68.05
59289;BME280;45056;47.602;9.886;2023-04-20T04:37:35;92359.50;;;4.85;68.13
59289;BME280;45056;47.602;9.886;2023-04-20T04:40:04;92361.81;;;4.83;68.15
59289;BME280;45056;47.602;9.886;2023-04-20T04:42:34;92365.69;;;4.82;68.10
59289;BME280;45056;47.602;9.886;2023-04-20T04:45:03;92358.38;;;4.83;68.02
59289;BME280;45056;47.602;9.886;2023-04-20T04:47:33;92351.81;;;4.84;67.99
59289;BME280;45056;47.602;9.886;2023-04-20T04:50:02;92351.13;;;4.80;68.07
59289;BME280;45056;47.602;9.886;2023-04-20T04:52:33;92348.44;;;4.80;68.41
59289;BME280;45056;47.602;9.886;2023-04-20T04:55:02;92338.06;;;4.78;68.14
59289;BME280;45056;47.602;9.886;2023-04-20T04:57:33;92346.94;;;4.79;68.32
59289;BME280;45056;47.602;9.886;2023-04-20T05:00:01;92347.66;;;4.79;68.31
59289;BME280;45056;47.602;9.886;2023-04-20T05:02:32;92346.94;;;4.79;68.28
59289;BME280;45056;47.602;9.886;2023-04-20T05:05:00;92340.03;;;4.78;68.05
59289;BME280;45056;47.602;9.886;2023-04-20T05:07:28;92343.91;;;4.76;68.10
59289;BME280;45056;47.602;9.886;2023-04-20T05:09:57;92353.50;;;4.78;68.36
59289;BME280;45056;47.602;9.886;2023-04-20T05:12:26;92349.53;;;4.82;68.31
59289;BME280;45056;47.602;9.886;2023-04-20T05:14:54;92353.34;;;4.85;68.33
59289;BME280;45056;47.602;9.886;2023-04-20T05:17:22;92349.81;;;4.88;68.40
59289;BME280;45056;47.602;9.886;2023-04-20T05:19:50;92347.44;;;4.90;68.21
59289;BME280;45056;47.602;9.886;2023-04-20T05:22:18;92350.47;;;4.92;68.17
59289;BME280;45056;47.602;9.886;2023-04-20T05:24:46;92353.09;;;4.96;67.85
59289;BME280;45056;47.602;9.886;2023-04-20T05:27:15;92340.53;;;4.89;67.75
59289;BME280;45056;47.602;9.886;2023-04-20T05:29:43;92342.22;;;4.83;68.04
59289;BME280;45056;47.602;9.886;2023-04-20T05:32:11;92327.78;;;4.73;68.16
59289;BME280;45056;47.602;9.886;2023-04-20T05:34:39;92352.13;;;4.69;68.47
59289;BME280;45056;47.602;9.886;2023-04-20T05:37:07;92354.34;;;4.74;68.47
59289;BME280;45056;47.602;9.886;2023-04-20T05:39:35;92359.22;;;4.80;68.54
59289;BME280;45056;47.602;9.886;2023-04-20T05:42:03;92370.00;;;4.80;68.22
59289;BME280;45056;47.602;9.886;2023-04-20T05:44:33;92369.66;;;4.78;68.50
59289;BME280;45056;47.602;9.886;2023-04-20T05:47:01;92372.28;;;4.81;68.41
59289;BME280;45056;47.602;9.886;2023-04-20T05:49:31;92371.03;;;4.86;68.30
59289;BME280;45056;47.602;9.886;2023-04-20T05:51:59;92364.06;;;4.88;68.29
59289;BME280;45056;47.602;9.886;2023-04-20T05:54:28;92362.09;;;4.89;68.04
59289;BME280;45056;47.602;9.886;2023-04-20T05:56:56;92367.50;;;4.89;68.03
59289;BME280;45056;47.602;9.886;2023-04-20T05:59:25;92362.44;;;4.91;67.91
59289;BME280;45056;47.602;9.886;2023-04-20T06:01:55;92362.03;;;4.93;67.79
59289;BME280;45056;47.602;9.886;2023-04-20T06:04:22;92366.31;;;4.90;67.70
59289;BME280;45056;47.602;9.886;2023-04-20T06:06:50;92365.63;;;4.86;67.60
59289;BME280;45056;47.602;9.886;2023-04-20T06:09:18;92385.28;;;4.86;67.66
59289;BME280;45056;47.602;9.886;2023-04-20T06:11:46;92374.50;;;4.86;67.36
59289;BME280;45056;47.602;9.886;2023-04-20T06:14:14;92372.88;;;4.89;67.18
59289;BME280;45056;47.602;9.886;2023-04-20T06:16:42;92372.88;;;4.89;67.08
59289;BME280;45056;47.602;9.886;2023-04-20T06:19:12;92390.66;;;4.86;66.91
59289;BME280;45056;47.602;9.886;2023-04-20T06:21:40;92391.97;;;4.78;66.81
59289;BME280;45056;47.602;9.886;2023-04-20T06:24:08;92386.75;;;4.71;66.73
59289;BME280;45056;47.602;9.886;2023-04-20T06:26:35;92382.69;;;4.62;66.93
59289;BME280;45056;47.602;9.886;2023-04-20T06:29:03;92382.84;;;4.55;66.97
59289;BME280;45056;47.602;9.886;2023-04-20T06:31:31;92373.69;;;4.49;67.21
59289;BME280;45056;47.602;9.886;2023-04-20T06:33:59;92366.53;;;4.42;67.51
59289;BME280;45056;47.602;9.886;2023-04-20T06:36:29;92365.88;;;4.38;67.60
59289;BME280;45056;47.602;9.886;2023-04-20T06:38:57;92370.47;;;4.38;67.65
59289;BME280;45056;47.602;9.886;2023-04-20T06:41:25;92363.22;;;4.35;67.70
59289;BME280;45056;47.602;9.886;2023-04-20T06:43:53;92362.53;;;4.30;67.85
59289;BME280;45056;47.602;9.886;2023-04-20T06:46:21;92359.56;;;4.25;68.06
59289;BME280;45056;47.602;9.886;2023-04-20T06:48:48;92354.31;;;4.17;68.09
59289;BME280;45056;47.602;9.886;2023-04-20T06:51:16;92371.31;;;4.14;68.48
59289;BME280;45056;47.602;9.886;2023-04-20T06:53:46;92369.03;;;4.13;68.56
59289;BME280;45056;47.602;9.886;2023-04-20T06:56:14;92368.69;;;4.11;68.36
59289;BME280;45056;47.602;9.886;2023-04-20T06:58:42;92375.25;;;4.10;68.55
59289;BME280;45056;47.602;9.886;2023-04-20T07:01:09;92387.97;;;4.09;68.62
59289;BME280;45056;47.602;9.886;2023-04-20T07:03:38;92383.81;;;4.04;68.58
59289;BME280;45056;47.602;9.886;2023-04-20T07:06:06;92376.94;;;4.00;68.52
59289;BME280;45056;47.602;9.886;2023-04-20T07:08:37;92369.34;;;3.95;68.42
59289;BME280;45056;47.602;9.886;2023-04-20T07:11:07;92357.91;;;3.90;68.78
59289;BME280;45056;47.602;9.886;2023-04-20T07:13:35;92356.09;;;3.84;68.71
59289;BME280;45056;47.602;9.886;2023-04-20T07:16:03;92360.38;;;3.81;69.05
59289;BME280;45056;47.602;9.886;2023-04-20T07:18:31;92348.78;;;3.84;69.22
59289;BME280;45056;47.602;9.886;2023-04-20T07:20:59;92356.38;;;3.89;68.84
59289;BME280;45056;47.602;9.886;2023-04-20T07:23:27;92359.41;;;3.92;68.75
59289;BME280;45056;47.602;9.886;2023-04-20T07:25:55;92365.22;;;3.90;68.40
59289;BME280;45056;47.602;9.886;2023-04-20T07:28:25;92365.63;;;3.88;68.29
59289;BME280;45056;47.602;9.886;2023-04-20T07:30:52;92360.66;;;3.87;68.57
59289;BME280;45056;47.602;9.886;2023-04-20T07:33:20;92352.66;;;3.83;68.50
59289;BME280;45056;47.602;9.886;2023-04-20T07:35:49;92356.53;;;3.82;68.72
59289;BME280;45056;47.602;9.886;2023-04-20T07:38:17;92361.91;;;3.82;69.02
59289;BME280;45056;47.602;9.886;2023-04-20T07:40:45;92355.34;;;3.83;68.80
59289;BME280;45056;47.602;9.886;2023-04-20T07:43:13;92357.25;;;3.83;68.70
59289;BME280;45056;47.602;9.886;2023-04-20T07:45:42;92337.81;;;3.75;69.19
59289;BME280;45056;47.602;9.886;2023-04-20T07:48:10;92340.97;;;3.70;69.46
59289;BME280;45056;47.602;9.886;2023-04-20T07:50:38;92344.44;;;3.70;69.55
59289;BME280;45056;47.602;9.886;2023-04-20T07:53:06;92339.88;;;3.67;69.64
59289;BME280;45056;47.602;9.886;2023-04-20T07:55:34;92337.19;;;3.67;69.96
59289;BME280;45056;47.602;9.886;2023-04-20T07:58:02;92339.75;;;3.74;70.04
59289;BME280;45056;47.602;9.886;2023-04-20T08:00:30;92346.09;;;3.84;69.76
59289;BME280;45056;47.602;9.886;2023-04-20T08:03:00;92352.53;;;3.90;69.97
59289;BME280;45056;47.602;9.886;2023-04-20T08:05:28;92343.81;;;4.03;69.70
59289;BME280;45056;47.602;9.886;2023-04-20T08:07:56;92338.91;;;4.18;69.38
59289;BME280;45056;47.602;9.886;2023-04-20T08:10:24;92339.88;;;4.28;69.50
59289;BME280;45056;47.602;9.886;2023-04-20T08:12:52;92327.31;;;4.41;69.65
59289;BME280;45056;47.602;9.886;2023-04-20T08:15:20;92322.63;;;4.62;69.43
59289;BME280;45056;47.602;9.886;2023-04-20T08:17:48;92311.88;;;4.79;69.04
59289;BME280;45056;47.602;9.886;2023-04-20T08:20:18;92311.16;;;4.95;68.82
59289;BME280;45056;47.602;9.886;2023-04-20T08:22:46;92318.81;;;5.13;68.78
59289;BME280;45056;47.602;9.886;2023-04-20T08:25:14;92316.09;;;5.29;68.35
59289;BME280;45056;47.602;9.886;2023-04-20T08:27:42;92301.59;;;5.40;67.74
59289;BME280;45056;47.602;9.886;2023-04-20T08:30:11;92301.00;;;5.48;67.56
59289;BME280;45056;47.602;9.886;2023-04-20T08:32:39;92300.38;;;5.57;67.33
59289;BME280;45056;47.602;9.886;2023-04-20T08:35:07;92304.00;;;5.67;67.34
59289;BME280;45056;47.602;9.886;2023-04-20T08:37:37;92312.91;;;5.81;67.41
59289;BME280;45056;47.602;9.886;2023-04-20T08:40:06;92317.50;;;5.97;66.84
59289;BME280;45056;47.602;9.886;2023-04-20T08:42:36;92319.09;;;6.11;66.58
59289;BME280;45056;47.602;9.886;2023-04-20T08:45:05;92316.31;;;6.27;65.35
59289;BME280;45056;47.602;9.886;2023-04-20T08:47:34;92305.88;;;6.42;65.81
59289;BME280;45056;47.602;9.886;2023-04-20T08:50:04;92309.13;;;6.63;65.63
59289;BME280;45056;47.602;9.886;2023-04-20T08:52:33;92304.06;;;6.78;64.91
59289;BME280;45056;47.602;9.886;2023-04-20T08:55:06;92304.16;;;6.87;64.55
59289;BME280;45056;47.602;9.886;2023-04-20T08:57:35;92294.97;;;6.98;64.40
59289;BME280;45056;47.602;9.886;2023-04-20T09:00:04;92302.31;;;7.10;64.09
59289;BME280;45056;47.602;9.886;2023-04-20T09:02:35;92298.19;;;7.18;63.62
59289;BME280;45056;47.602;9.886;2023-04-20T09:05:05;92299.91;;;7.25;63.61
59289;BME280;45056;47.602;9.886;2023-04-20T09:07:34;92299.38;;;7.30;63.11
59289;BME280;45056;47.602;9.886;2023-04-20T09:10:02;92293.06;;;7.33;63.47
59289;BME280;45056;47.602;9.886;2023-04-20T09:12:41;92297.19;;;7.38;63.29
59289;BME280;45056;47.602;9.886;2023-04-20T09:15:09;92306.81;;;7.52;63.45
59289;BME280;45056;47.602;9.886;2023-04-20T09:17:38;92311.72;;;7.67;62.93
59289;BME280;45056;47.602;9.886;2023-04-20T09:20:07;92307.47;;;7.78;62.30
59289;BME280;45056;47.602;9.886;2023-04-20T09:22:37;92309.63;;;7.84;61.46
59289;BME280;45056;47.602;9.886;2023-04-20T09:25:12;92323.16;;;7.84;61.03
59289;BME280;45056;47.602;9.886;2023-04-20T09:27:42;92311.25;;;7.81;60.94
59289;BME280;45056;47.602;9.886;2023-04-20T09:30:21;92317.09;;;7.79;61.02
59289;BME280;45056;47.602;9.886;2023-04-20T09:33:00;92325.47;;;7.72;61.19
59289;BME280;45056;47.602;9.886;2023-04-20T09:35:28;92323.75;;;7.65;61.52
59289;BME280;45056;47.602;9.886;2023-04-20T09:37:57;92325.50;;;7.59;61.63
59289;BME280;45056;47.602;9.886;2023-04-20T09:40:25;92322.91;;;7.56;61.86
59289;BME280;45056;47.602;9.886;2023-04-20T09:42:58;92324.88;;;7.55;62.22
59289;BME280;45056;47.602;9.886;2023-04-20T09:45:30;92319.56;;;7.51;62.23
59289;BME280;45056;47.602;9.886;2023-04-20T09:48:00;92326.72;;;7.45;61.79
59289;BME280;45056;47.602;9.886;2023-04-20T09:50:34;92324.13;;;7.42;61.74
59289;BME280;45056;47.602;9.886;2023-04-20T09:53:04;92324.91;;;7.42;61.73
59289;BME280;45056;47.602;9.886;2023-04-20T09:55:32;92327.47;;;7.46;61.99
59289;BME280;45056;47.602;9.886;2023-04-20T09:58:03;92332.03;;;7.49;61.81
59289;BME280;45056;47.602;9.886;2023-04-20T10:00:32;92329.75;;;7.47;61.74
59289;BME280;45056;47.602;9.886;2023-04-20T10:03:00;92328.66;;;7.45;61.60
59289;BME280;45056;47.602;9.886;2023-04-20T10:05:32;92334.53;;;7.43;61.89
59289;BME280;45056;47.602;9.886;2023-04-20T10:08:02;92323.25;;;7.45;62.14
59289;BME280;45056;47.602;9.886;2023-04-20T10:10:42;92333.19;;;7.48;62.40
59289;BME280;45056;47.602;9.886;2023-04-20T10:13:12;92323.16;;;7.48;61.95
59289;BME280;45056;47.602;9.886;2023-04-20T10:15:41;92317.84;;;7.45;61.84
59289;BME280;45056;47.602;9.886;2023-04-20T10:18:17;92319.91;;;7.41;61.67
59289;BME280;45056;47.602;9.886;2023-04-20T10:20:49;92310.59;;;7.42;61.92
59289;BME280;45056;47.602;9.886;2023-04-20T10:23:18;92301.28;;;7.43;62.36
59289;BME280;45056;47.602;9.886;2023-04-20T10:25:56;92302.47;;;7.42;62.29
59289;BME280;45056;47.602;9.886;2023-04-20T10:28:38;92299.78;;;7.42;62.06
59289;BME280;45056;47.602;9.886;2023-04-20T10:31:08;92305.19;;;7.42;61.90
59289;BME280;45056;47.602;9.886;2023-04-20T10:33:51;92304.13;;;7.39;62.13
59289;BME280;45056;47.602;9.886;2023-04-20T10:36:25;92294.91;;;7.36;62.30
59289;BME280;45056;47.602;9.886;2023-04-20T10:38:55;92296.41;;;7.38;62.46
59289;BME280;45056;47.602;9.886;2023-04-20T10:41:23;92284.72;;;7.41;62.50
59289;BME280;45056;47.602;9.886;2023-04-20T10:43:53;92287.00;;;7.42;62.47
59289;BME280;45056;47.602;9.886;2023-04-20T10:46:22;92284.94;;;7.46;62.65
59289;BME280;45056;47.602;9.886;2023-04-20T10:48:51;92282.13;;;7.50;62.72
59289;BME280;45056;47.602;9.886;2023-04-20T10:51:21;92281.66;;;7.51;62.72
59289;BME280;45056;47.602;9.886;2023-04-20T10:54:01;92275.50;;;7.51;62.56
59289;BME280;45056;47.602;9.886;2023-04-20T10:56:38;92263.28;;;7.46;62.38
59289;BME280;45056;47.602;9.886;2023-04-20T10:59:10;92270.00;;;7.42;62.38
59289;BME280;45056;47.602;9.886;2023-04-20T11:01:40;92261.25;;;7.38;62.41
59289;BME280;45056;47.602;9.886;2023-04-20T11:04:10;92257.47;;;7.35;62.86
59289;BME280;45056;47.602;9.886;2023-04-20T11:06:40;92248.28;;;7.32;63.03
59289;BME280;45056;47.602;9.886;2023-04-20T11:09:17;92253.56;;;7.36;63.14
59289;BME280;45056;47.602;9.886;2023-04-20T11:11:56;92252.69;;;7.39;63.46
59289;BME280;45056;47.602;9.886;2023-04-20T11:14:28;92245.63;;;7.42;63.94
59289;BME280;45056;47.602;9.886;2023-04-20T11:16:56;92257.09;;;7.46;63.88
59289;BME280;45056;47.602;9.886;2023-04-20T11:19:26;92256.41;;;7.55;64.18
59289;BME280;45056;47.602;9.886;2023-04-20T11:21:55;92258.47;;;7.63;63.39
59289;BME280;45056;47.602;9.886;2023-04-20T11:24:25;92257.16;;;7.68;62.85
59289;BME280;45056;47.602;9.886;2023-04-20T11:26:55;92251.59;;;7.72;63.01
59289;BME280;45056;47.602;9.886;2023-04-20T11:29:30;92259.41;;;7.70;62.47
59289;BME280;45056;47.602;9.886;2023-04-20T11:32:01;92255.19;;;7.69;62.05
59289;BME280;45056;47.602;9.886;2023-04-20T11:34:33;92256.38;;;7.68;62.27
59289;BME280;45056;47.602;9.886;2023-04-20T11:37:04;92252.94;;;7.67;62.24
59289;BME280;45056;47.602;9.886;2023-04-20T11:39:32;92255.31;;;7.65;61.88
59289;BME280;45056;47.602;9.886;2023-04-20T11:42:01;92245.81;;;7.60;61.86
59289;BME280;45056;47.602;9.886;2023-04-20T11:44:30;92245.81;;;7.60;61.88
59289;BME280;45056;47.602;9.886;2023-04-20T11:46:59;92237.22;;;7.62;62.44
59289;BME280;45056;47.602;9.886;2023-04-20T11:49:28;92246.44;;;7.64;62.39
59289;BME280;45056;47.602;9.886;2023-04-20T11:51:56;92248.81;;;7.62;62.82
59289;BME280;45056;47.602;9.886;2023-04-20T11:54:24;92248.19;;;7.58;62.91
59289;BME280;45056;47.602;9.886;2023-04-20T11:56:53;92246.69;;;7.57;63.00
59289;BME280;45056;47.602;9.886;2023-04-20T11:59:21;92245.03;;;7.60;62.93
59289;BME280;45056;47.602;9.886;2023-04-20T12:01:52;92247.63;;;7.63;63.41
59289;BME280;45056;47.602;9.886;2023-04-20T12:04:19;92249.13;;;7.64;63.68
59289;BME280;45056;47.602;9.886;2023-04-20T12:06:48;92237.75;;;7.70;63.91
59289;BME280;45056;47.602;9.886;2023-04-20T12:09:16;92249.97;;;7.74;64.20
59289;BME280;45056;47.602;9.886;2023-04-20T12:11:44;92243.78;;;7.74;64.55
59289;BME280;45056;47.602;9.886;2023-04-20T12:14:12;92243.78;;;7.74;64.59
59289;BME280;45056;47.602;9.886;2023-04-20T12:16:40;92243.47;;;7.72;64.44
59289;BME280;45056;47.602;9.886;2023-04-20T12:19:09;92243.94;;;7.70;64.56
59289;BME280;45056;47.602;9.886;2023-04-20T12:21:37;92248.25;;;7.68;64.55
59289;BME280;45056;47.602;9.886;2023-04-20T12:24:05;92245.53;;;7.68;64.69
59289;BME280;45056;47.602;9.886;2023-04-20T12:26:33;92263.31;;;7.69;64.83
59289;BME280;45056;47.602;9.886;2023-04-20T12:29:02;92256.69;;;7.70;64.88
59289;BME280;45056;47.602;9.886;2023-04-20T12:31:30;92261.38;;;7.69;64.89
59289;BME280;45056;47.602;9.886;2023-04-20T12:33:58;92266.78;;;7.69;64.93
59289;BME280;45056;47.602;9.886;2023-04-20T12:36:27;92258.22;;;7.71;65.10
59289;BME280;45056;47.602;9.886;2023-04-20T12:38:55;92248.88;;;7.72;65.35
59289;BME280;45056;47.602;9.886;2023-04-20T12:41:23;92254.63;;;7.74;65.42
59289;BME280;45056;47.602;9.886;2023-04-20T12:43:51;92248.22;;;7.80;65.77
59289;BME280;45056;47.602;9.886;2023-04-20T12:46:19;92253.81;;;7.86;65.79
59289;BME280;45056;47.602;9.886;2023-04-20T12:48:47;92251.59;;;7.94;65.93
59289;BME280;45056;47.602;9.886;2023-04-20T12:51:15;92258.72;;;8.01;66.17
59289;BME280;45056;47.602;9.886;2023-04-20T12:53:44;92274.41;;;8.06;66.07
59289;BME280;45056;47.602;9.886;2023-04-20T12:56:12;92272.78;;;8.08;66.06
59289;BME280;45056;47.602;9.886;2023-04-20T12:58:40;92280.78;;;8.12;66.00
59289;BME280;45056;47.602;9.886;2023-04-20T13:01:08;92278.81;;;8.13;66.16
59289;BME280;45056;47.602;9.886;2023-04-20T13:03:36;92281.97;;;8.11;66.51
59289;BME280;45056;47.602;9.886;2023-04-20T13:06:04;92285.88;;;8.10;66.13
59289;BME280;45056;47.602;9.886;2023-04-20T13:08:33;92280.59;;;8.06;66.09
59289;BME280;45056;47.602;9.886;2023-04-20T13:11:04;92283.31;;;8.06;66.01
59289;BME280;45056;47.602;9.886;2023-04-20T13:13:32;92294.88;;;8.07;65.88
59289;BME280;45056;47.602;9.886;2023-04-20T13:16:00;92300.31;;;8.07;65.52
59289;BME280;45056;47.602;9.886;2023-04-20T13:18:28;92292.63;;;8.05;65.33
59289;BME280;45056;47.602;9.886;2023-04-20T13:20:56;92301.63;;;8.02;65.31